createdAt,value
2023-01-07T00:01:53.969Z,6.28
2023-01-07T00:04:21.491Z,6.28
2023-01-07T00:06:50.005Z,6.18
2023-01-07T00:09:17.493Z,6.00
2023-01-07T00:11:45.179Z,6.10
2023-01-07T00:14:13.963Z,6.32
2023-01-07T00:16:41.516Z,5.60
2023-01-07T00:19:12.089Z,5.97
2023-01-07T00:21:39.508Z,5.88
2023-01-07T00:24:09.167Z,5.60
2023-01-07T00:26:38.278Z,5.57
2023-01-07T00:29:07.168Z,5.63
2023-01-07T00:31:37.107Z,5.05
2023-01-07T00:34:05.203Z,5.75
2023-01-07T00:36:42.766Z,5.57
2023-01-07T00:39:19.790Z,5.38
2023-01-07T00:42:07.211Z,5.03
2023-01-07T00:44:34.877Z,4.90
2023-01-07T00:47:02.538Z,5.40
2023-01-07T00:49:29.975Z,5.35
2023-01-07T00:51:57.350Z,4.85
2023-01-07T00:54:24.835Z,5.10
2023-01-07T00:56:52.291Z,4.90
2023-01-07T00:59:19.754Z,4.35
2023-01-07T01:01:47.249Z,4.93
2023-01-07T01:04:14.897Z,4.60
2023-01-07T01:06:42.215Z,4.38
2023-01-07T01:09:09.647Z,4.80
2023-01-07T01:11:36.958Z,4.55
2023-01-07T01:14:04.261Z,4.15
2023-01-07T01:16:31.633Z,4.43
2023-01-07T01:18:59.027Z,4.15
2023-01-07T01:21:26.391Z,3.78
2023-01-07T01:23:53.846Z,4.20
2023-01-07T01:26:21.321Z,3.65
2023-01-07T01:28:48.798Z,4.25
2023-01-07T01:31:16.186Z,3.83
2023-01-07T01:33:43.521Z,4.30
2023-01-07T01:36:13.317Z,4.10
2023-01-07T01:38:41.805Z,3.70
2023-01-07T01:41:09.262Z,4.00
2023-01-07T01:43:40.115Z,3.70
2023-01-07T01:46:36.699Z,3.72
2023-01-07T01:49:23.858Z,3.80
2023-01-07T01:51:59.685Z,3.70
2023-01-07T01:54:28.124Z,3.35
2023-01-07T01:56:58.505Z,3.58
2023-01-07T01:59:29.995Z,3.53
2023-01-07T02:01:57.557Z,3.47
2023-01-07T02:04:28.834Z,3.85
2023-01-07T02:07:09.461Z,3.28
2023-01-07T02:09:36.944Z,3.58
2023-01-07T02:12:50.075Z,3.50
2023-01-07T02:15:40.970Z,3.67
2023-01-07T02:18:13.904Z,3.40
2023-01-07T02:20:52.194Z,3.38
2023-01-07T02:23:25.022Z,3.30
2023-01-07T02:26:14.033Z,3.22
2023-01-07T02:29:17.242Z,3.50
2023-01-07T02:31:50.569Z,3.67
2023-01-07T02:35:00.307Z,3.40
2023-01-07T02:37:47.241Z,3.28
2023-01-07T02:40:33.128Z,3.22
2023-01-07T02:43:07.753Z,3.35
2023-01-07T02:48:17.932Z,3.10
2023-01-07T02:50:45.333Z,3.13
2023-01-07T02:53:17.577Z,3.22
2023-01-07T02:55:59.922Z,3.33
2023-01-07T02:58:53.475Z,3.15
2023-01-07T03:01:50.225Z,2.90
2023-01-07T03:04:31.108Z,3.00
2023-01-07T03:07:25.390Z,2.88
2023-01-07T03:10:18.634Z,2.90
2023-01-07T03:12:53.207Z,2.90
2023-01-07T03:15:50.042Z,2.90
2023-01-07T03:18:30.419Z,2.83
2023-01-07T03:21:02.564Z,3.00
2023-01-07T03:23:31.131Z,2.70
2023-01-07T03:26:04.606Z,2.70
2023-01-07T03:28:37.588Z,2.78
2023-01-07T03:31:06.154Z,2.70
2023-01-07T03:33:45.627Z,2.60
2023-01-07T03:36:16.624Z,2.28
2023-01-07T03:38:46.426Z,2.20
2023-01-07T03:41:33.819Z,2.65
2023-01-07T03:44:01.197Z,2.60
2023-01-07T03:46:28.890Z,2.70
2023-01-07T03:48:56.742Z,2.42
2023-01-07T03:51:24.092Z,2.42
2023-01-07T03:53:51.543Z,2.25
2023-01-07T03:56:18.869Z,2.67
2023-01-07T03:58:46.173Z,2.65
2023-01-07T04:01:13.582Z,2.40
2023-01-07T04:03:40.883Z,2.42
2023-01-07T04:06:08.187Z,2.40
2023-01-07T04:08:37.247Z,2.38
2023-01-07T04:11:05.150Z,2.47
2023-01-07T04:13:32.671Z,2.28
2023-01-07T04:15:59.984Z,2.38
2023-01-07T04:18:27.341Z,2.70
2023-01-07T04:20:54.634Z,2.20
2023-01-07T04:23:21.884Z,2.38
2023-01-07T04:25:49.738Z,2.72
2023-01-07T04:28:17.075Z,2.20
2023-01-07T04:30:44.448Z,2.30
2023-01-07T04:33:11.809Z,2.50
2023-01-07T04:35:40.173Z,2.83
2023-01-07T04:38:07.623Z,1.92
2023-01-07T04:40:34.908Z,2.40
2023-01-07T04:43:02.229Z,2.70
2023-01-07T04:45:29.619Z,2.33
2023-01-07T04:47:57.813Z,2.30
2023-01-07T04:50:25.566Z,2.50
2023-01-07T04:52:52.905Z,2.55
2023-01-07T04:55:20.290Z,2.33
2023-01-07T04:57:47.657Z,2.78
2023-01-07T05:00:15.607Z,2.50
2023-01-07T05:02:42.859Z,2.50
2023-01-07T05:05:10.801Z,2.63
2023-01-07T05:07:38.235Z,2.70
2023-01-07T05:10:05.976Z,2.40
2023-01-07T05:12:37.231Z,2.80
2023-01-07T05:15:05.970Z,2.25
2023-01-07T05:17:33.383Z,2.58
2023-01-07T05:20:00.734Z,2.58
2023-01-07T05:22:28.057Z,2.38
2023-01-07T05:24:55.456Z,2.33
2023-01-07T05:27:22.745Z,2.42
2023-01-07T05:29:50.035Z,2.72
2023-01-07T05:32:17.401Z,2.92
2023-01-07T05:34:44.779Z,2.47
2023-01-07T05:37:12.481Z,3.00
2023-01-07T05:39:39.857Z,2.35
2023-01-07T05:42:07.458Z,2.80
2023-01-07T05:44:34.809Z,2.28
2023-01-07T05:47:02.149Z,2.72
2023-01-07T05:49:29.465Z,2.60
2023-01-07T05:51:56.844Z,2.55
2023-01-07T05:54:24.169Z,2.58
2023-01-07T05:56:51.533Z,2.60
2023-01-07T05:59:19.019Z,2.40
2023-01-07T06:01:46.378Z,2.30
2023-01-07T06:04:13.981Z,2.55
2023-01-07T06:06:41.333Z,2.40
2023-01-07T06:09:08.731Z,2.70
2023-01-07T06:11:36.097Z,2.10
2023-01-07T06:14:03.414Z,2.33
2023-01-07T06:16:30.694Z,2.35
2023-01-07T06:18:58.096Z,2.22
2023-01-07T06:21:25.426Z,2.33
2023-01-07T06:23:52.822Z,2.25
2023-01-07T06:26:20.141Z,2.20
2023-01-07T06:28:47.480Z,2.30
2023-01-07T06:31:14.890Z,1.98
2023-01-07T06:33:42.334Z,2.30
2023-01-07T06:36:09.868Z,2.28
2023-01-07T06:38:37.309Z,2.20
2023-01-07T06:41:05.183Z,2.17
2023-01-07T06:43:32.659Z,2.00
2023-01-07T06:46:00.218Z,2.17
2023-01-07T06:48:27.871Z,1.90
2023-01-07T06:50:55.198Z,2.15
2023-01-07T06:53:22.745Z,2.00
2023-01-07T06:55:51.179Z,1.85
2023-01-07T06:58:18.889Z,2.05
2023-01-07T07:00:46.299Z,2.20
2023-01-07T07:03:13.844Z,1.70
2023-01-07T07:05:41.208Z,1.80
2023-01-07T07:08:08.637Z,2.00
2023-01-07T07:10:36.133Z,1.70
2023-01-07T07:13:03.798Z,1.90
2023-01-07T07:15:31.153Z,1.90
2023-01-07T07:17:58.581Z,1.70
2023-01-07T07:20:26.021Z,1.70
2023-01-07T07:22:53.325Z,1.80
2023-01-07T07:25:20.720Z,1.67
2023-01-07T07:27:48.228Z,1.60
2023-01-07T07:30:16.272Z,1.95
2023-01-07T07:32:43.604Z,1.63
2023-01-07T07:35:11.954Z,1.70
2023-01-07T07:37:39.497Z,2.00
2023-01-07T07:40:09.083Z,1.75
2023-01-07T07:43:10.437Z,1.63
2023-01-07T07:45:24.968Z,1.63
2023-01-07T07:47:52.263Z,1.73
2023-01-07T07:50:19.606Z,1.55
2023-01-07T07:52:46.975Z,1.58
2023-01-07T07:55:20.082Z,1.55
2023-01-07T07:57:58.369Z,1.60
2023-01-07T08:00:26.024Z,1.50
2023-01-07T08:02:56.983Z,1.33
2023-01-07T08:05:24.435Z,1.75
2023-01-07T08:07:51.893Z,1.42
2023-01-07T08:10:20.644Z,1.42
2023-01-07T08:12:48.339Z,1.50
2023-01-07T08:15:15.686Z,1.23
2023-01-07T08:17:43.012Z,1.50
2023-01-07T08:20:11.051Z,1.45
2023-01-07T08:22:38.494Z,1.40
2023-01-07T08:25:06.214Z,1.30
2023-01-07T08:27:33.526Z,1.30
2023-01-07T08:30:00.955Z,1.63
2023-01-07T08:32:28.238Z,1.40
2023-01-07T08:34:56.129Z,1.38
2023-01-07T08:37:23.559Z,1.20
2023-01-07T08:39:50.901Z,1.45
2023-01-07T08:42:18.551Z,1.48
2023-01-07T08:44:45.995Z,1.42
2023-01-07T08:47:13.313Z,1.45
2023-01-07T08:49:40.679Z,1.20
2023-01-07T08:52:07.994Z,1.40
2023-01-07T08:54:35.293Z,1.00
2023-01-07T08:57:02.734Z,1.27
2023-01-07T08:59:30.103Z,1.30
2023-01-07T09:01:57.567Z,1.30
2023-01-07T09:04:25.092Z,1.48
2023-01-07T09:06:52.378Z,1.23
2023-01-07T09:09:19.712Z,1.17
2023-01-07T09:11:47.011Z,1.50
2023-01-07T09:14:14.854Z,1.38
2023-01-07T09:16:42.392Z,1.52
2023-01-07T09:19:09.964Z,1.58
2023-01-07T09:21:37.337Z,1.55
2023-01-07T09:24:04.928Z,2.10
2023-01-07T09:26:32.252Z,2.05
2023-01-07T09:28:59.560Z,2.40
2023-01-07T09:31:27.005Z,2.67
2023-01-07T09:33:54.378Z,2.35
2023-01-07T09:36:21.693Z,2.70
2023-01-07T09:38:48.929Z,2.70
2023-01-07T09:41:44.940Z,2.80
2023-01-07T09:44:33.208Z,3.50
2023-01-07T09:47:01.522Z,3.78
2023-01-07T09:49:32.586Z,3.78
2023-01-07T09:52:12.305Z,4.10
2023-01-07T09:54:40.881Z,3.80
2023-01-07T09:57:14.424Z,3.55
2023-01-07T09:59:41.959Z,3.28
2023-01-07T10:02:39.452Z,3.25
2023-01-07T10:05:36.006Z,3.10
2023-01-07T10:08:29.718Z,3.90
2023-01-07T10:11:06.738Z,3.67
2023-01-07T10:14:38.494Z,3.50
2023-01-07T10:17:42.159Z,3.78
2023-01-07T10:20:38.912Z,4.07
2023-01-07T10:23:13.012Z,3.83
2023-01-07T10:25:50.325Z,3.80
2023-01-07T10:28:36.182Z,3.60
2023-01-07T10:31:05.783Z,3.83
2023-01-07T10:33:34.131Z,3.97
2023-01-07T10:36:10.357Z,3.95
2023-01-07T10:38:42.699Z,3.67
2023-01-07T10:41:34.199Z,4.32
2023-01-07T10:44:19.367Z,3.95
2023-01-07T10:47:17.155Z,4.43
2023-01-07T10:50:17.047Z,4.05
2023-01-07T10:53:19.245Z,4.68
2023-01-07T10:55:50.041Z,4.68
2023-01-07T10:58:17.425Z,3.83
2023-01-07T11:00:48.045Z,4.25
2023-01-07T11:03:25.491Z,4.38
2023-01-07T11:05:59.703Z,4.30
2023-01-07T11:08:37.777Z,3.85
2023-01-07T11:11:06.813Z,4.30
2023-01-07T11:13:38.896Z,4.03
2023-01-07T11:16:19.045Z,3.85
2023-01-07T11:19:04.354Z,4.38
2023-01-07T11:21:43.337Z,4.28
2023-01-07T11:24:23.414Z,3.67
2023-01-07T11:26:51.095Z,3.95
2023-01-07T11:29:32.843Z,3.92
2023-01-07T11:32:03.767Z,3.65
2023-01-07T11:34:35.483Z,4.00
2023-01-07T11:37:03.936Z,4.07
2023-01-07T11:39:34.411Z,3.63
2023-01-07T11:42:25.636Z,3.97
2023-01-07T11:45:11.655Z,3.80
2023-01-07T11:47:44.689Z,3.35
2023-01-07T11:50:35.868Z,3.88
2023-01-07T11:53:14.776Z,3.78
2023-01-07T11:56:02.248Z,4.05
2023-01-07T11:58:36.059Z,3.72
2023-01-07T12:01:12.477Z,3.57
2023-01-07T12:03:56.621Z,4.13
2023-01-07T12:06:28.608Z,3.33
2023-01-07T12:09:03.119Z,3.85
2023-01-07T12:11:40.388Z,4.07
2023-01-07T12:14:24.529Z,3.90
2023-01-07T12:16:52.913Z,3.57
2023-01-07T12:19:41.549Z,4.30
2023-01-07T12:22:45.854Z,4.10
2023-01-07T12:25:23.467Z,4.35
2023-01-07T12:28:05.755Z,3.95
2023-01-07T12:30:36.122Z,4.47
2023-01-07T12:33:18.278Z,4.15
2023-01-07T12:35:45.801Z,3.92
2023-01-07T12:38:25.301Z,4.07
2023-01-07T12:41:05.591Z,4.45
2023-01-07T12:43:38.406Z,4.60
2023-01-07T12:46:10.976Z,4.22
2023-01-07T12:49:02.281Z,3.88
2023-01-07T12:51:35.172Z,4.05
2023-01-07T12:54:27.362Z,4.00
2023-01-07T12:57:00.035Z,4.40
2023-01-07T12:59:48.342Z,4.30
2023-01-07T13:02:38.408Z,4.13
2023-01-07T13:05:10.229Z,4.05
2023-01-07T13:07:55.065Z,4.50
2023-01-07T13:10:27.026Z,4.65
2023-01-07T13:13:02.879Z,4.40
2023-01-07T13:15:33.807Z,4.90
2023-01-07T13:18:13.428Z,4.22
2023-01-07T13:20:55.824Z,5.00
2023-01-07T13:23:50.843Z,4.50
2023-01-07T13:26:34.983Z,4.63
2023-01-07T13:29:41.070Z,4.60
2023-01-07T13:32:26.817Z,5.45
2023-01-07T13:35:12.748Z,5.05
2023-01-07T13:38:33.840Z,5.47
2023-01-07T13:41:22.315Z,5.65
2023-01-07T13:43:55.208Z,5.80
2023-01-07T13:46:31.942Z,6.22
2023-01-07T13:48:59.412Z,5.28
2023-01-07T13:51:36.796Z,5.90
2023-01-07T13:54:04.689Z,6.22
2023-01-07T13:56:38.961Z,6.05
2023-01-07T13:59:30.953Z,5.38
2023-01-07T14:02:18.247Z,6.30
2023-01-07T14:05:06.031Z,6.13
2023-01-07T14:07:46.108Z,6.03
2023-01-07T14:10:29.337Z,6.72
2023-01-07T14:13:14.728Z,6.75
2023-01-07T14:16:31.327Z,6.97
2023-01-07T14:19:17.793Z,6.53
2023-01-07T14:22:22.465Z,6.88
2023-01-07T14:25:27.285Z,6.78
2023-01-07T14:27:54.606Z,6.45
2023-01-07T14:30:31.235Z,6.97
2023-01-07T14:33:05.710Z,6.65
2023-01-07T14:35:39.728Z,6.60
2023-01-07T14:38:31.850Z,6.68
2023-01-07T14:41:03.873Z,6.25
2023-01-07T14:43:44.043Z,7.18
2023-01-07T14:46:51.984Z,6.40
2023-01-07T14:49:36.055Z,6.43
2023-01-07T14:52:19.458Z,6.45
2023-01-07T14:55:34.327Z,6.97
2023-01-07T14:58:24.835Z,6.40
2023-01-07T15:01:10.349Z,6.30
2023-01-07T15:03:53.277Z,6.88
2023-01-07T15:06:41.926Z,6.70
2023-01-07T15:09:32.081Z,6.63
2023-01-07T15:12:27.114Z,7.10
2023-01-07T15:15:21.057Z,6.30
2023-01-07T15:17:48.457Z,7.30
2023-01-07T15:20:15.922Z,7.60
2023-01-07T15:23:10.953Z,7.07
2023-01-07T15:26:04.284Z,7.72
2023-01-07T15:28:55.638Z,7.68
2023-01-07T15:31:28.686Z,7.32
2023-01-07T15:33:56.921Z,7.38
2023-01-07T15:36:24.838Z,7.07
2023-01-07T15:38:55.762Z,7.80
2023-01-07T15:41:32.887Z,7.88
2023-01-07T15:44:03.615Z,8.00
2023-01-07T15:46:32.506Z,8.35
2023-01-07T15:49:14.969Z,8.65
2023-01-07T15:51:50.280Z,8.35
2023-01-07T15:54:26.819Z,9.05
2023-01-07T15:57:18.578Z,8.52
2023-01-07T15:59:49.634Z,8.70
2023-01-07T16:02:36.288Z,8.90
2023-01-07T16:05:05.447Z,9.60
2023-01-07T16:07:50.483Z,9.13
2023-01-07T16:10:22.033Z,8.70
2023-01-07T16:12:51.766Z,8.95
2023-01-07T16:17:58.079Z,9.65
2023-01-07T16:20:30.358Z,8.82
2023-01-07T16:23:27.812Z,9.30
2023-01-07T16:25:58.255Z,9.05
2023-01-07T16:28:34.463Z,9.27
2023-01-07T16:31:04.293Z,9.48
2023-01-07T16:33:34.431Z,9.43
2023-01-07T16:36:17.491Z,9.52
2023-01-07T16:38:46.936Z,9.73
2023-01-07T16:41:26.049Z,9.55
2023-01-07T16:44:00.821Z,9.50
2023-01-07T16:46:38.882Z,9.15
2023-01-07T16:49:17.398Z,9.23
2023-01-07T16:52:18.206Z,9.15
2023-01-07T16:54:47.163Z,8.77
2023-01-07T16:57:15.082Z,8.40
2023-01-07T16:59:57.432Z,8.23
2023-01-07T17:02:36.887Z,9.05
2023-01-07T17:05:18.546Z,9.30
2023-01-07T17:07:54.689Z,8.45
2023-01-07T17:10:28.309Z,8.40
2023-01-07T17:12:59.087Z,8.63
2023-01-07T17:15:36.056Z,8.05
2023-01-07T17:18:12.403Z,8.18
2023-01-07T17:20:48.975Z,7.95
2023-01-07T17:23:31.773Z,7.93
2023-01-07T17:26:05.930Z,7.75
2023-01-07T17:28:37.550Z,7.25
2023-01-07T17:31:05.991Z,7.68
2023-01-07T17:33:33.256Z,7.32
2023-01-07T17:36:00.562Z,7.32
2023-01-07T17:38:29.431Z,6.90
2023-01-07T17:40:56.882Z,7.20
2023-01-07T17:43:35.849Z,7.35
2023-01-07T17:46:05.628Z,6.95
2023-01-07T17:48:34.489Z,6.70
2023-01-07T17:51:04.380Z,6.55
2023-01-07T17:53:37.462Z,7.10
2023-01-07T17:56:04.930Z,6.03
2023-01-07T17:58:37.063Z,6.93
2023-01-07T18:01:09.953Z,6.20
2023-01-07T18:03:37.346Z,5.95
2023-01-07T18:06:12.018Z,5.80
2023-01-07T18:11:25.339Z,5.95
2023-01-07T18:13:52.599Z,6.03
2023-01-07T18:16:19.849Z,5.85
2023-01-07T18:18:47.159Z,6.07
2023-01-07T18:21:14.457Z,6.07
2023-01-07T18:23:41.774Z,6.75
2023-01-07T18:26:09.967Z,6.18
2023-01-07T18:28:37.278Z,6.85
2023-01-07T18:31:04.867Z,6.00
2023-01-07T18:33:33.377Z,6.38
2023-01-07T18:36:01.875Z,6.82
2023-01-07T18:38:29.130Z,8.73
2023-01-07T18:40:56.778Z,16.52
2023-01-07T18:43:24.029Z,25.20
2023-01-07T18:45:51.479Z,37.83
2023-01-07T18:48:19.909Z,41.17
2023-01-07T18:50:49.380Z,42.60
2023-01-07T18:53:18.108Z,47.03
2023-01-07T18:55:46.064Z,48.72
2023-01-07T18:58:15.072Z,47.88
2023-01-07T19:00:42.857Z,47.47
2023-01-07T19:03:11.203Z,45.60
2023-01-07T19:05:41.037Z,45.65
2023-01-07T19:08:08.435Z,44.72
2023-01-07T19:10:36.389Z,45.45
2023-01-07T19:13:03.728Z,46.08
2023-01-07T19:15:30.995Z,44.53
2023-01-07T19:17:58.252Z,44.20
2023-01-07T19:20:25.587Z,43.05
2023-01-07T19:22:52.931Z,42.13
2023-01-07T19:25:20.179Z,40.47
2023-01-07T19:27:47.434Z,38.92
2023-01-07T19:30:14.732Z,39.63
2023-01-07T19:32:41.992Z,37.30
2023-01-07T19:35:09.787Z,36.20
2023-01-07T19:37:38.138Z,36.03
2023-01-07T19:40:06.508Z,33.47
2023-01-07T19:42:34.876Z,32.67
2023-01-07T19:45:03.262Z,32.38
2023-01-07T19:47:30.853Z,33.00
2023-01-07T19:49:58.119Z,31.23
2023-01-07T19:52:25.367Z,32.60
2023-01-07T19:54:52.662Z,32.85
2023-01-07T19:57:19.979Z,31.17
2023-01-07T19:59:47.201Z,30.25
2023-01-07T20:02:14.797Z,29.45
2023-01-07T20:04:43.018Z,29.17
2023-01-07T20:07:10.410Z,28.58
2023-01-07T20:09:37.710Z,28.33
2023-01-07T20:12:05.213Z,26.80
2023-01-07T20:14:32.655Z,26.85
2023-01-07T20:16:59.911Z,27.92
2023-01-07T20:19:27.270Z,25.52
2023-01-07T20:21:54.552Z,25.27
2023-01-07T20:24:21.805Z,25.30
2023-01-07T20:26:49.058Z,23.88
2023-01-07T20:29:16.296Z,24.40
2023-01-07T20:31:44.777Z,23.73
2023-01-07T20:34:12.635Z,24.00
2023-01-07T20:36:39.986Z,22.75
2023-01-07T20:39:07.359Z,23.35
2023-01-07T20:41:35.863Z,23.42
2023-01-07T20:44:05.444Z,22.30
2023-01-07T20:46:34.786Z,22.15
2023-01-07T20:49:02.357Z,22.23
2023-01-07T20:51:29.716Z,22.88
2023-01-07T20:53:58.536Z,21.17
2023-01-07T20:56:31.722Z,22.48
2023-01-07T20:59:00.236Z,20.70
2023-01-07T21:01:28.130Z,21.02
2023-01-07T21:03:55.722Z,21.38
2023-01-07T21:06:23.111Z,21.25
2023-01-07T21:08:50.601Z,21.00
2023-01-07T21:11:20.522Z,21.60
2023-01-07T21:13:48.876Z,20.48
2023-01-07T21:16:16.521Z,20.40
2023-01-07T21:18:44.193Z,19.73
2023-01-07T21:21:14.656Z,19.92
2023-01-07T21:23:42.059Z,19.38
2023-01-07T21:26:12.856Z,19.60
2023-01-07T21:28:40.569Z,19.80
2023-01-07T21:31:11.420Z,19.10
2023-01-07T21:33:40.145Z,18.88
2023-01-07T21:36:13.110Z,18.58
2023-01-07T21:38:40.497Z,18.98
2023-01-07T21:41:14.745Z,18.20
2023-01-07T21:43:43.084Z,18.60
2023-01-07T21:46:11.882Z,18.50
2023-01-07T21:48:41.127Z,18.20
2023-01-07T21:51:28.131Z,17.33
2023-01-07T21:53:57.017Z,17.70
2023-01-07T21:56:26.365Z,17.23
2023-01-07T21:58:53.866Z,18.25
2023-01-07T22:01:21.681Z,18.33
2023-01-07T22:03:49.925Z,18.35
2023-01-07T22:06:24.272Z,17.42
2023-01-07T22:08:55.943Z,16.70
2023-01-07T22:11:23.537Z,15.93
2023-01-07T22:13:55.709Z,16.15
2023-01-07T22:16:25.184Z,15.93
2023-01-07T22:18:52.723Z,14.50
2023-01-07T22:21:20.358Z,13.93
2023-01-07T22:23:48.443Z,13.63
2023-01-07T22:26:18.235Z,13.15
2023-01-07T22:28:51.613Z,12.32
2023-01-07T22:31:33.875Z,11.68
2023-01-07T22:34:01.224Z,11.90
2023-01-07T22:36:36.155Z,11.25
2023-01-07T22:39:09.782Z,10.70
2023-01-07T22:41:37.648Z,11.00
2023-01-07T22:44:09.399Z,9.60
2023-01-07T22:46:38.160Z,10.52
2023-01-07T22:49:06.103Z,9.43
2023-01-07T22:51:38.904Z,9.40
2023-01-07T22:54:07.304Z,9.20
2023-01-07T22:56:35.271Z,9.02
2023-01-07T22:59:02.509Z,9.02
2023-01-07T23:01:30.018Z,8.90
2023-01-07T23:03:57.378Z,8.40
2023-01-07T23:06:24.766Z,8.27
2023-01-07T23:08:52.038Z,8.13
2023-01-07T23:11:38.022Z,7.07
2023-01-07T23:14:05.346Z,7.53
2023-01-07T23:16:35.004Z,7.00
2023-01-07T23:19:02.326Z,7.05
2023-01-07T23:21:31.935Z,7.07
2023-01-07T23:23:59.947Z,6.50
2023-01-07T23:26:27.241Z,6.10
2023-01-07T23:28:54.471Z,6.30
2023-01-07T23:31:21.899Z,6.03
2023-01-07T23:33:49.171Z,6.00
2023-01-07T23:36:16.371Z,5.38
2023-01-07T23:38:43.660Z,5.97
2023-01-07T23:41:12.303Z,5.63
2023-01-07T23:43:39.810Z,5.93
2023-01-07T23:46:08.515Z,5.25
2023-01-07T23:48:37.536Z,5.65
2023-01-07T23:51:10.450Z,5.10
2023-01-07T23:53:38.158Z,4.43
2023-01-07T23:56:06.702Z,4.70
2023-01-07T23:58:34.774Z,4.53
